sensor_id;sensor_type;location;lat;lon;timestamp;P1;durP1;ratioP1;P2;durP2;ratioP2
2452;SDS011;63678;47.994;7.854;2023-04-25T00:01:09;9.18;;;4.20;;
2452;SDS011;63678;47.994;7.854;2023-04-25T00:03:44;8.68;;;4.70;;
2452;SDS011;63678;47.994;7.854;2023-04-25T00:06:17;7.85;;;3.70;;
2452;SDS011;63678;47.994;7.854;2023-04-25T00:08:50;10.63;;;3.78;;
2452;SDS011;63678;47.994;7.854;2023-04-25T00:11:22;6.65;;;3.67;;
2452;SDS011;63678;47.994;7.854;2023-04-25T00:13:55;7.47;;;4.03;;
2452;SDS011;63678;47.994;7.854;2023-04-25T00:16:27;7.28;;;3.97;;
2452;SDS011;63678;47.994;7.854;2023-04-25T00:19:02;9.82;;;4.00;;
2452;SDS011;63678;47.994;7.854;2023-04-25T00:21:34;7.97;;;3.72;;
2452;SDS011;63678;47.994;7.854;2023-04-25T00:24:09;11.00;;;4.38;;
2452;SDS011;63678;47.994;7.854;2023-04-25T00:26:41;9.00;;;4.13;;
2452;SDS011;63678;47.994;7.854;2023-04-25T00:29:13;6.53;;;3.78;;
2452;SDS011;63678;47.994;7.854;2023-04-25T00:31:46;8.23;;;4.22;;
2452;SDS011;63678;47.994;7.854;2023-04-25T00:34:19;10.63;;;4.10;;
2452;SDS011;63678;47.994;7.854;2023-04-25T00:36:52;9.50;;;4.00;;
2452;SDS011;63678;47.994;7.854;2023-04-25T00:39:24;8.43;;;4.63;;
2452;SDS011;63678;47.994;7.854;2023-04-25T00:41:57;9.43;;;4.30;;
2452;SDS011;63678;47.994;7.854;2023-04-25T00:44:30;6.80;;;4.25;;
2452;SDS011;63678;47.994;7.854;2023-04-25T00:47:03;6.97;;;4.05;;
2452;SDS011;63678;47.994;7.854;2023-04-25T00:49:36;9.18;;;4.63;;
2452;SDS011;63678;47.994;7.854;2023-04-25T00:52:09;8.82;;;4.50;;
2452;SDS011;63678;47.994;7.854;2023-04-25T00:54:42;10.20;;;4.18;;
2452;SDS011;63678;47.994;7.854;2023-04-25T00:57:14;11.75;;;4.53;;
2452;SDS011;63678;47.994;7.854;2023-04-25T00:59:48;5.97;;;4.05;;
2452;SDS011;63678;47.994;7.854;2023-04-25T01:02:23;8.00;;;4.50;;
2452;SDS011;63678;47.994;7.854;2023-04-25T01:04:55;13.50;;;4.53;;
2452;SDS011;63678;47.994;7.854;2023-04-25T01:07:28;10.20;;;4.65;;
2452;SDS011;63678;47.994;7.854;2023-04-25T01:10:01;10.25;;;4.95;;
2452;SDS011;63678;47.994;7.854;2023-04-25T01:12:34;8.88;;;4.53;;
2452;SDS011;63678;47.994;7.854;2023-04-25T01:15:06;8.00;;;4.22;;
2452;SDS011;63678;47.994;7.854;2023-04-25T01:17:40;11.95;;;4.75;;
2452;SDS011;63678;47.994;7.854;2023-04-25T01:20:12;8.68;;;4.68;;
2452;SDS011;63678;47.994;7.854;2023-04-25T01:22:46;10.55;;;4.60;;
2452;SDS011;63678;47.994;7.854;2023-04-25T01:25:18;10.88;;;4.40;;
2452;SDS011;63678;47.994;7.854;2023-04-25T01:27:51;9.38;;;4.80;;
2452;SDS011;63678;47.994;7.854;2023-04-25T01:30:25;11.65;;;4.90;;
2452;SDS011;63678;47.994;7.854;2023-04-25T01:32:59;10.23;;;4.65;;
2452;SDS011;63678;47.994;7.854;2023-04-25T01:35:32;9.35;;;4.68;;
2452;SDS011;63678;47.994;7.854;2023-04-25T01:38:05;11.68;;;4.63;;
2452;SDS011;63678;47.994;7.854;2023-04-25T01:40:38;9.27;;;4.43;;
2452;SDS011;63678;47.994;7.854;2023-04-25T01:43:12;11.00;;;4.47;;
2452;SDS011;63678;47.994;7.854;2023-04-25T01:45:45;11.25;;;4.72;;
2452;SDS011;63678;47.994;7.854;2023-04-25T01:48:18;8.10;;;4.50;;
2452;SDS011;63678;47.994;7.854;2023-04-25T01:50:51;11.52;;;4.72;;
2452;SDS011;63678;47.994;7.854;2023-04-25T01:53:23;8.07;;;4.40;;
2452;SDS011;63678;47.994;7.854;2023-04-25T01:55:56;11.65;;;4.55;;
2452;SDS011;63678;47.994;7.854;2023-04-25T01:58:36;6.72;;;3.92;;
2452;SDS011;63678;47.994;7.854;2023-04-25T02:01:24;8.43;;;4.05;;
2452;SDS011;63678;47.994;7.854;2023-04-25T02:04:15;10.13;;;4.40;;
2452;SDS011;63678;47.994;7.854;2023-04-25T02:06:48;7.50;;;4.03;;
2452;SDS011;63678;47.994;7.854;2023-04-25T02:09:22;8.55;;;4.05;;
2452;SDS011;63678;47.994;7.854;2023-04-25T02:11:58;7.30;;;4.10;;
2452;SDS011;63678;47.994;7.854;2023-04-25T02:15:17;8.98;;;3.85;;
2452;SDS011;63678;47.994;7.854;2023-04-25T02:18:00;12.55;;;4.13;;
2452;SDS011;63678;47.994;7.854;2023-04-25T02:20:33;8.35;;;3.80;;
2452;SDS011;63678;47.994;7.854;2023-04-25T02:23:06;8.65;;;3.72;;
2452;SDS011;63678;47.994;7.854;2023-04-25T02:25:39;7.87;;;4.00;;
2452;SDS011;63678;47.994;7.854;2023-04-25T02:28:11;9.20;;;4.40;;
2452;SDS011;63678;47.994;7.854;2023-04-25T02:30:44;10.50;;;4.00;;
2452;SDS011;63678;47.994;7.854;2023-04-25T02:33:20;10.60;;;4.28;;
2452;SDS011;63678;47.994;7.854;2023-04-25T02:35:52;7.13;;;3.67;;
2452;SDS011;63678;47.994;7.854;2023-04-25T02:38:25;8.82;;;3.95;;
2452;SDS011;63678;47.994;7.854;2023-04-25T02:41:00;8.82;;;3.85;;
2452;SDS011;63678;47.994;7.854;2023-04-25T02:43:33;10.30;;;4.38;;
2452;SDS011;63678;47.994;7.854;2023-04-25T02:46:06;11.18;;;4.28;;
2452;SDS011;63678;47.994;7.854;2023-04-25T02:48:38;10.32;;;4.13;;
2452;SDS011;63678;47.994;7.854;2023-04-25T02:51:10;11.45;;;4.40;;
2452;SDS011;63678;47.994;7.854;2023-04-25T02:53:43;8.77;;;4.20;;
2452;SDS011;63678;47.994;7.854;2023-04-25T02:56:16;8.70;;;4.25;;
2452;SDS011;63678;47.994;7.854;2023-04-25T02:58:48;10.13;;;3.90;;
2452;SDS011;63678;47.994;7.854;2023-04-25T03:01:21;8.15;;;3.60;;
2452;SDS011;63678;47.994;7.854;2023-04-25T03:03:53;6.18;;;3.88;;
2452;SDS011;63678;47.994;7.854;2023-04-25T03:06:26;16.25;;;4.70;;
2452;SDS011;63678;47.994;7.854;2023-04-25T03:08:58;9.52;;;3.78;;
2452;SDS011;63678;47.994;7.854;2023-04-25T03:11:31;8.02;;;3.55;;
2452;SDS011;63678;47.994;7.854;2023-04-25T03:14:04;8.90;;;3.80;;
2452;SDS011;63678;47.994;7.854;2023-04-25T03:16:38;8.82;;;3.60;;
2452;SDS011;63678;47.994;7.854;2023-04-25T03:19:11;7.18;;;4.05;;
2452;SDS011;63678;47.994;7.854;2023-04-25T03:21:43;8.07;;;3.58;;
2452;SDS011;63678;47.994;7.854;2023-04-25T03:24:16;7.50;;;3.83;;
2452;SDS011;63678;47.994;7.854;2023-04-25T03:26:49;11.63;;;4.20;;
2452;SDS011;63678;47.994;7.854;2023-04-25T03:29:22;8.70;;;3.47;;
2452;SDS011;63678;47.994;7.854;2023-04-25T03:31:58;6.85;;;3.67;;
2452;SDS011;63678;47.994;7.854;2023-04-25T03:34:30;11.63;;;4.50;;
2452;SDS011;63678;47.994;7.854;2023-04-25T03:37:03;5.93;;;3.47;;
2452;SDS011;63678;47.994;7.854;2023-04-25T03:39:40;8.13;;;3.38;;
2452;SDS011;63678;47.994;7.854;2023-04-25T03:42:13;7.07;;;3.40;;
2452;SDS011;63678;47.994;7.854;2023-04-25T03:44:48;13.00;;;3.63;;
2452;SDS011;63678;47.994;7.854;2023-04-25T03:47:21;10.15;;;3.75;;
2452;SDS011;63678;47.994;7.854;2023-04-25T03:49:54;6.60;;;3.40;;
2452;SDS011;63678;47.994;7.854;2023-04-25T03:52:27;8.00;;;3.63;;
2452;SDS011;63678;47.994;7.854;2023-04-25T03:55:00;10.68;;;3.70;;
2452;SDS011;63678;47.994;7.854;2023-04-25T03:57:32;11.57;;;3.60;;
2452;SDS011;63678;47.994;7.854;2023-04-25T04:00:05;8.85;;;3.70;;
2452;SDS011;63678;47.994;7.854;2023-04-25T04:02:44;6.97;;;3.22;;
2452;SDS011;63678;47.994;7.854;2023-04-25T04:05:17;7.70;;;3.35;;
2452;SDS011;63678;47.994;7.854;2023-04-25T04:07:57;8.73;;;3.85;;
2452;SDS011;63678;47.994;7.854;2023-04-25T04:10:30;9.73;;;3.88;;
2452;SDS011;63678;47.994;7.854;2023-04-25T04:13:03;8.65;;;3.72;;
2452;SDS011;63678;47.994;7.854;2023-04-25T04:15:37;11.88;;;4.15;;
2452;SDS011;63678;47.994;7.854;2023-04-25T04:18:08;7.22;;;4.00;;
2452;SDS011;63678;47.994;7.854;2023-04-25T04:20:41;9.50;;;3.80;;
2452;SDS011;63678;47.994;7.854;2023-04-25T04:23:13;8.15;;;3.85;;
2452;SDS011;63678;47.994;7.854;2023-04-25T04:25:46;8.90;;;4.30;;
2452;SDS011;63678;47.994;7.854;2023-04-25T04:28:22;12.23;;;5.57;;
2452;SDS011;63678;47.994;7.854;2023-04-25T04:31:04;8.57;;;4.10;;
2452;SDS011;63678;47.994;7.854;2023-04-25T04:33:37;10.20;;;4.30;;
2452;SDS011;63678;47.994;7.854;2023-04-25T04:36:11;6.20;;;3.80;;
2452;SDS011;63678;47.994;7.854;2023-04-25T04:38:43;10.88;;;4.53;;
2452;SDS011;63678;47.994;7.854;2023-04-25T04:41:23;9.23;;;3.78;;
2452;SDS011;63678;47.994;7.854;2023-04-25T04:44:15;8.95;;;4.20;;
2452;SDS011;63678;47.994;7.854;2023-04-25T04:46:57;7.53;;;4.07;;
2452;SDS011;63678;47.994;7.854;2023-04-25T04:49:44;8.75;;;3.75;;
2452;SDS011;63678;47.994;7.854;2023-04-25T04:52:33;7.20;;;3.70;;
2452;SDS011;63678;47.994;7.854;2023-04-25T04:55:26;7.00;;;4.00;;
2452;SDS011;63678;47.994;7.854;2023-04-25T04:58:14;9.10;;;4.10;;
2452;SDS011;63678;47.994;7.854;2023-04-25T05:01:11;8.52;;;4.03;;
2452;SDS011;63678;47.994;7.854;2023-04-25T05:03:59;8.95;;;4.07;;
2452;SDS011;63678;47.994;7.854;2023-04-25T05:07:10;8.73;;;4.00;;
2452;SDS011;63678;47.994;7.854;2023-04-25T05:09:54;9.25;;;4.38;;
2452;SDS011;63678;47.994;7.854;2023-04-25T05:12:44;8.13;;;4.10;;
2452;SDS011;63678;47.994;7.854;2023-04-25T05:15:26;9.57;;;4.27;;
2452;SDS011;63678;47.994;7.854;2023-04-25T05:18:17;9.75;;;3.90;;
2452;SDS011;63678;47.994;7.854;2023-04-25T05:21:07;10.48;;;4.38;;
2452;SDS011;63678;47.994;7.854;2023-04-25T05:23:53;11.00;;;5.38;;
2452;SDS011;63678;47.994;7.854;2023-04-25T05:26:45;13.30;;;5.45;;
2452;SDS011;63678;47.994;7.854;2023-04-25T05:29:48;10.75;;;5.70;;
2452;SDS011;63678;47.994;7.854;2023-04-25T05:32:31;10.35;;;3.92;;
2452;SDS011;63678;47.994;7.854;2023-04-25T05:35:04;8.10;;;3.97;;
2452;SDS011;63678;47.994;7.854;2023-04-25T05:37:46;9.18;;;4.22;;
2452;SDS011;63678;47.994;7.854;2023-04-25T05:40:18;7.20;;;3.55;;
2452;SDS011;63678;47.994;7.854;2023-04-25T05:43:01;5.63;;;2.60;;
2452;SDS011;63678;47.994;7.854;2023-04-25T05:45:57;6.70;;;2.70;;
2452;SDS011;63678;47.994;7.854;2023-04-25T05:48:40;6.40;;;2.80;;
2452;SDS011;63678;47.994;7.854;2023-04-25T05:51:33;5.72;;;2.38;;
2452;SDS011;63678;47.994;7.854;2023-04-25T05:54:34;4.18;;;2.45;;
2452;SDS011;63678;47.994;7.854;2023-04-25T05:57:08;6.40;;;2.90;;
2452;SDS011;63678;47.994;7.854;2023-04-25T05:59:41;7.60;;;3.17;;
2452;SDS011;63678;47.994;7.854;2023-04-25T06:02:14;6.53;;;2.78;;
2452;SDS011;63678;47.994;7.854;2023-04-25T06:05:08;6.97;;;2.40;;
2452;SDS011;63678;47.994;7.854;2023-04-25T06:07:42;3.97;;;2.30;;
2452;SDS011;63678;47.994;7.854;2023-04-25T06:10:15;5.33;;;2.50;;
2452;SDS011;63678;47.994;7.854;2023-04-25T06:12:49;4.85;;;2.10;;
2452;SDS011;63678;47.994;7.854;2023-04-25T06:15:24;4.82;;;2.67;;
2452;SDS011;63678;47.994;7.854;2023-04-25T06:18:00;4.80;;;2.33;;
2452;SDS011;63678;47.994;7.854;2023-04-25T06:20:33;5.15;;;2.30;;
2452;SDS011;63678;47.994;7.854;2023-04-25T06:23:06;8.07;;;2.30;;
2452;SDS011;63678;47.994;7.854;2023-04-25T06:26:03;3.75;;;1.67;;
2452;SDS011;63678;47.994;7.854;2023-04-25T06:28:40;5.30;;;2.03;;
2452;SDS011;63678;47.994;7.854;2023-04-25T06:31:13;4.50;;;2.30;;
2452;SDS011;63678;47.994;7.854;2023-04-25T06:33:49;3.90;;;2.30;;
2452;SDS011;63678;47.994;7.854;2023-04-25T06:36:23;5.97;;;2.80;;
2452;SDS011;63678;47.994;7.854;2023-04-25T06:38:59;5.38;;;1.95;;
2452;SDS011;63678;47.994;7.854;2023-04-25T06:41:32;5.55;;;2.90;;
2452;SDS011;63678;47.994;7.854;2023-04-25T06:44:06;6.15;;;2.55;;
2452;SDS011;63678;47.994;7.854;2023-04-25T06:46:44;6.50;;;2.83;;
2452;SDS011;63678;47.994;7.854;2023-04-25T06:49:17;5.33;;;2.30;;
2452;SDS011;63678;47.994;7.854;2023-04-25T06:51:51;4.85;;;2.30;;
2452;SDS011;63678;47.994;7.854;2023-04-25T06:54:24;5.63;;;2.92;;
2452;SDS011;63678;47.994;7.854;2023-04-25T06:57:05;6.30;;;2.50;;
2452;SDS011;63678;47.994;7.854;2023-04-25T06:59:41;6.65;;;2.92;;
2452;SDS011;63678;47.994;7.854;2023-04-25T07:02:14;4.27;;;2.60;;
2452;SDS011;63678;47.994;7.854;2023-04-25T07:04:47;6.47;;;3.45;;
2452;SDS011;63678;47.994;7.854;2023-04-25T07:07:21;6.53;;;2.88;;
2452;SDS011;63678;47.994;7.854;2023-04-25T07:09:59;6.75;;;3.28;;
2452;SDS011;63678;47.994;7.854;2023-04-25T07:12:33;5.95;;;3.47;;
2452;SDS011;63678;47.994;7.854;2023-04-25T07:15:06;4.80;;;3.13;;
2452;SDS011;63678;47.994;7.854;2023-04-25T07:17:44;5.80;;;3.15;;
2452;SDS011;63678;47.994;7.854;2023-04-25T07:20:18;7.65;;;3.53;;
2452;SDS011;63678;47.994;7.854;2023-04-25T07:22:51;5.43;;;3.40;;
2452;SDS011;63678;47.994;7.854;2023-04-25T07:25:47;6.20;;;3.63;;
2452;SDS011;63678;47.994;7.854;2023-04-25T07:28:41;7.17;;;4.13;;
2452;SDS011;63678;47.994;7.854;2023-04-25T07:31:15;11.70;;;4.63;;
2452;SDS011;63678;47.994;7.854;2023-04-25T07:33:52;8.18;;;4.07;;
2452;SDS011;63678;47.994;7.854;2023-04-25T07:36:25;7.25;;;3.80;;
2452;SDS011;63678;47.994;7.854;2023-04-25T07:38:59;8.38;;;4.03;;
2452;SDS011;63678;47.994;7.854;2023-04-25T07:41:32;9.43;;;3.97;;
2452;SDS011;63678;47.994;7.854;2023-04-25T07:44:05;6.53;;;4.13;;
2452;SDS011;63678;47.994;7.854;2023-04-25T07:46:39;8.75;;;4.53;;
2452;SDS011;63678;47.994;7.854;2023-04-25T07:49:13;8.23;;;4.50;;
2452;SDS011;63678;47.994;7.854;2023-04-25T07:51:47;9.48;;;4.85;;
2452;SDS011;63678;47.994;7.854;2023-04-25T07:54:39;7.30;;;4.63;;
2452;SDS011;63678;47.994;7.854;2023-04-25T07:57:19;8.73;;;4.80;;
2452;SDS011;63678;47.994;7.854;2023-04-25T07:59:53;9.57;;;4.70;;
2452;SDS011;63678;47.994;7.854;2023-04-25T08:02:27;7.63;;;4.47;;
2452;SDS011;63678;47.994;7.854;2023-04-25T08:05:02;9.02;;;4.78;;
2452;SDS011;63678;47.994;7.854;2023-04-25T08:07:35;10.90;;;5.60;;
2452;SDS011;63678;47.994;7.854;2023-04-25T08:10:09;7.72;;;4.53;;
2452;SDS011;63678;47.994;7.854;2023-04-25T08:12:43;7.35;;;4.78;;
2452;SDS011;63678;47.994;7.854;2023-04-25T08:15:18;10.23;;;4.57;;
2452;SDS011;63678;47.994;7.854;2023-04-25T08:17:50;8.13;;;5.05;;
2452;SDS011;63678;47.994;7.854;2023-04-25T08:20:25;7.80;;;4.47;;
2452;SDS011;63678;47.994;7.854;2023-04-25T08:23:00;8.32;;;4.30;;
2452;SDS011;63678;47.994;7.854;2023-04-25T08:25:45;7.90;;;4.45;;
2452;SDS011;63678;47.994;7.854;2023-04-25T08:28:20;7.68;;;4.38;;
2452;SDS011;63678;47.994;7.854;2023-04-25T08:30:56;6.45;;;3.72;;
2452;SDS011;63678;47.994;7.854;2023-04-25T08:33:31;9.17;;;4.50;;
2452;SDS011;63678;47.994;7.854;2023-04-25T08:36:17;7.10;;;4.30;;
2452;SDS011;63678;47.994;7.854;2023-04-25T08:39:21;7.90;;;4.72;;
2452;SDS011;63678;47.994;7.854;2023-04-25T08:42:29;6.85;;;4.60;;
2452;SDS011;63678;47.994;7.854;2023-04-25T08:45:08;7.88;;;4.68;;
2452;SDS011;63678;47.994;7.854;2023-04-25T08:47:43;6.60;;;4.30;;
2452;SDS011;63678;47.994;7.854;2023-04-25T08:50:18;6.68;;;4.40;;
2452;SDS011;63678;47.994;7.854;2023-04-25T08:52:55;7.38;;;4.22;;
2452;SDS011;63678;47.994;7.854;2023-04-25T08:55:33;9.13;;;4.50;;
2452;SDS011;63678;47.994;7.854;2023-04-25T08:58:06;7.70;;;3.95;;
2452;SDS011;63678;47.994;7.854;2023-04-25T09:00:40;7.65;;;4.05;;
2452;SDS011;63678;47.994;7.854;2023-04-25T09:03:14;6.55;;;3.95;;
2452;SDS011;63678;47.994;7.854;2023-04-25T09:05:49;8.27;;;4.25;;
2452;SDS011;63678;47.994;7.854;2023-04-25T09:08:25;6.78;;;3.60;;
2452;SDS011;63678;47.994;7.854;2023-04-25T09:10:58;7.00;;;3.40;;
2452;SDS011;63678;47.994;7.854;2023-04-25T09:13:33;6.60;;;3.90;;
2452;SDS011;63678;47.994;7.854;2023-04-25T09:16:24;7.22;;;3.60;;
2452;SDS011;63678;47.994;7.854;2023-04-25T09:19:25;7.28;;;4.28;;
2452;SDS011;63678;47.994;7.854;2023-04-25T09:22:19;9.50;;;4.25;;
2452;SDS011;63678;47.994;7.854;2023-04-25T09:24:54;7.63;;;4.43;;
2452;SDS011;63678;47.994;7.854;2023-04-25T09:27:31;7.50;;;4.40;;
2452;SDS011;63678;47.994;7.854;2023-04-25T09:30:15;7.78;;;4.15;;
2452;SDS011;63678;47.994;7.854;2023-04-25T09:33:08;7.88;;;3.78;;
2452;SDS011;63678;47.994;7.854;2023-04-25T09:35:49;9.60;;;4.50;;
2452;SDS011;63678;47.994;7.854;2023-04-25T09:38:44;7.80;;;4.15;;
2452;SDS011;63678;47.994;7.854;2023-04-25T09:41:23;6.22;;;4.18;;
2452;SDS011;63678;47.994;7.854;2023-04-25T09:43:59;6.57;;;3.45;;
2452;SDS011;63678;47.994;7.854;2023-04-25T09:46:36;5.15;;;3.47;;
2452;SDS011;63678;47.994;7.854;2023-04-25T09:49:15;7.28;;;3.75;;
2452;SDS011;63678;47.994;7.854;2023-04-25T09:51:59;5.35;;;3.28;;
2452;SDS011;63678;47.994;7.854;2023-04-25T09:54:39;8.15;;;3.40;;
2452;SDS011;63678;47.994;7.854;2023-04-25T09:57:19;5.10;;;3.05;;
2452;SDS011;63678;47.994;7.854;2023-04-25T09:59:57;6.07;;;3.40;;
2452;SDS011;63678;47.994;7.854;2023-04-25T10:02:52;6.45;;;3.58;;
2452;SDS011;63678;47.994;7.854;2023-04-25T10:05:50;8.55;;;4.95;;
2452;SDS011;63678;47.994;7.854;2023-04-25T10:08:23;6.32;;;3.40;;
2452;SDS011;63678;47.994;7.854;2023-04-25T10:10:59;4.87;;;2.47;;
2452;SDS011;63678;47.994;7.854;2023-04-25T10:13:36;5.68;;;2.90;;
2452;SDS011;63678;47.994;7.854;2023-04-25T10:16:09;5.80;;;2.70;;
2452;SDS011;63678;47.994;7.854;2023-04-25T10:18:42;4.55;;;2.50;;
2452;SDS011;63678;47.994;7.854;2023-04-25T10:21:15;4.93;;;2.72;;
2452;SDS011;63678;47.994;7.854;2023-04-25T10:23:49;4.38;;;2.92;;
2452;SDS011;63678;47.994;7.854;2023-04-25T10:26:23;5.43;;;3.33;;
2452;SDS011;63678;47.994;7.854;2023-04-25T10:29:02;4.53;;;2.70;;
2452;SDS011;63678;47.994;7.854;2023-04-25T10:31:38;5.05;;;2.60;;
2452;SDS011;63678;47.994;7.854;2023-04-25T10:34:18;4.00;;;2.38;;
2452;SDS011;63678;47.994;7.854;2023-04-25T10:36:52;4.50;;;2.70;;
2452;SDS011;63678;47.994;7.854;2023-04-25T10:39:25;5.72;;;3.00;;
2452;SDS011;63678;47.994;7.854;2023-04-25T10:41:59;5.25;;;3.10;;
2452;SDS011;63678;47.994;7.854;2023-04-25T10:44:35;4.93;;;2.90;;
2452;SDS011;63678;47.994;7.854;2023-04-25T10:47:10;5.22;;;3.08;;
2452;SDS011;63678;47.994;7.854;2023-04-25T10:49:43;5.45;;;3.20;;
2452;SDS011;63678;47.994;7.854;2023-04-25T10:52:16;5.20;;;3.08;;
2452;SDS011;63678;47.994;7.854;2023-04-25T10:55:02;5.53;;;3.22;;
2452;SDS011;63678;47.994;7.854;2023-04-25T10:57:45;7.20;;;3.60;;
2452;SDS011;63678;47.994;7.854;2023-04-25T11:00:20;5.47;;;3.55;;
2452;SDS011;63678;47.994;7.854;2023-04-25T11:03:18;6.53;;;3.63;;
2452;SDS011;63678;47.994;7.854;2023-04-25T11:05:54;7.15;;;3.80;;
2452;SDS011;63678;47.994;7.854;2023-04-25T11:08:33;7.15;;;3.97;;
2452;SDS011;63678;47.994;7.854;2023-04-25T11:11:20;6.03;;;3.50;;
2452;SDS011;63678;47.994;7.854;2023-04-25T11:13:53;7.05;;;4.00;;
2452;SDS011;63678;47.994;7.854;2023-04-25T11:16:26;6.13;;;3.45;;
2452;SDS011;63678;47.994;7.854;2023-04-25T11:18:59;5.38;;;3.38;;
2452;SDS011;63678;47.994;7.854;2023-04-25T11:21:32;6.28;;;3.97;;
2452;SDS011;63678;47.994;7.854;2023-04-25T11:24:04;5.70;;;3.78;;
2452;SDS011;63678;47.994;7.854;2023-04-25T11:26:37;5.60;;;3.60;;
2452;SDS011;63678;47.994;7.854;2023-04-25T11:29:10;8.00;;;4.50;;
2452;SDS011;63678;47.994;7.854;2023-04-25T11:31:43;6.03;;;3.67;;
2452;SDS011;63678;47.994;7.854;2023-04-25T11:34:20;7.25;;;4.18;;
2452;SDS011;63678;47.994;7.854;2023-04-25T11:36:52;5.55;;;3.33;;
2452;SDS011;63678;47.994;7.854;2023-04-25T11:39:25;4.88;;;3.22;;
2452;SDS011;63678;47.994;7.854;2023-04-25T11:41:58;5.85;;;3.75;;
2452;SDS011;63678;47.994;7.854;2023-04-25T11:44:37;6.82;;;4.38;;
2452;SDS011;63678;47.994;7.854;2023-04-25T11:47:11;4.75;;;2.83;;
2452;SDS011;63678;47.994;7.854;2023-04-25T11:49:44;11.50;;;5.38;;
2452;SDS011;63678;47.994;7.854;2023-04-25T11:52:16;9.60;;;3.83;;
2452;SDS011;63678;47.994;7.854;2023-04-25T11:54:49;7.40;;;4.47;;
2452;SDS011;63678;47.994;7.854;2023-04-25T11:57:22;9.48;;;4.53;;
2452;SDS011;63678;47.994;7.854;2023-04-25T11:59:54;10.63;;;4.18;;
2452;SDS011;63678;47.994;7.854;2023-04-25T12:02:27;7.28;;;3.95;;
2452;SDS011;63678;47.994;7.854;2023-04-25T12:05:00;6.72;;;4.15;;
2452;SDS011;63678;47.994;7.854;2023-04-25T12:07:53;6.18;;;4.10;;
2452;SDS011;63678;47.994;7.854;2023-04-25T12:10:26;7.40;;;3.80;;
2452;SDS011;63678;47.994;7.854;2023-04-25T12:12:58;6.88;;;4.60;;
2452;SDS011;63678;47.994;7.854;2023-04-25T12:15:30;8.93;;;3.63;;
2452;SDS011;63678;47.994;7.854;2023-04-25T12:18:05;7.75;;;3.90;;
2452;SDS011;63678;47.994;7.854;2023-04-25T12:20:38;6.55;;;3.50;;
2452;SDS011;63678;47.994;7.854;2023-04-25T12:23:10;7.53;;;3.88;;
2452;SDS011;63678;47.994;7.854;2023-04-25T12:25:44;5.53;;;3.65;;
2452;SDS011;63678;47.994;7.854;2023-04-25T12:28:22;6.57;;;3.15;;
2452;SDS011;63678;47.994;7.854;2023-04-25T12:31:03;5.93;;;3.20;;
2452;SDS011;63678;47.994;7.854;2023-04-25T12:33:37;7.85;;;3.33;;
2452;SDS011;63678;47.994;7.854;2023-04-25T12:36:11;6.57;;;3.83;;
2452;SDS011;63678;47.994;7.854;2023-04-25T12:38:45;5.78;;;3.63;;
2452;SDS011;63678;47.994;7.854;2023-04-25T12:41:17;6.68;;;2.90;;
2452;SDS011;63678;47.994;7.854;2023-04-25T12:43:50;5.90;;;3.20;;
2452;SDS011;63678;47.994;7.854;2023-04-25T12:46:22;5.28;;;2.80;;
2452;SDS011;63678;47.994;7.854;2023-04-25T12:48:54;5.93;;;2.70;;
2452;SDS011;63678;47.994;7.854;2023-04-25T12:51:33;4.97;;;2.58;;
2452;SDS011;63678;47.994;7.854;2023-04-25T12:54:06;6.82;;;3.08;;
2452;SDS011;63678;47.994;7.854;2023-04-25T12:56:41;5.50;;;2.92;;
2452;SDS011;63678;47.994;7.854;2023-04-25T12:59:13;5.05;;;3.00;;
2452;SDS011;63678;47.994;7.854;2023-04-25T13:01:46;4.68;;;2.80;;
2452;SDS011;63678;47.994;7.854;2023-04-25T13:04:19;4.13;;;2.38;;
2452;SDS011;63678;47.994;7.854;2023-04-25T13:06:52;4.60;;;3.00;;
2452;SDS011;63678;47.994;7.854;2023-04-25T13:09:25;7.57;;;3.40;;
2452;SDS011;63678;47.994;7.854;2023-04-25T13:11:58;4.80;;;3.10;;
2452;SDS011;63678;47.994;7.854;2023-04-25T13:14:30;4.38;;;2.72;;
2452;SDS011;63678;47.994;7.854;2023-04-25T13:17:02;8.77;;;3.33;;
2452;SDS011;63678;47.994;7.854;2023-04-25T13:19:35;6.47;;;3.40;;
2452;SDS011;63678;47.994;7.854;2023-04-25T13:22:07;6.78;;;4.10;;
2452;SDS011;63678;47.994;7.854;2023-04-25T13:24:40;4.80;;;3.15;;
2452;SDS011;63678;47.994;7.854;2023-04-25T13:27:12;5.60;;;2.95;;
2452;SDS011;63678;47.994;7.854;2023-04-25T13:29:45;5.00;;;2.75;;
2452;SDS011;63678;47.994;7.854;2023-04-25T13:32:18;5.05;;;2.60;;
2452;SDS011;63678;47.994;7.854;2023-04-25T13:34:50;4.32;;;2.10;;
2452;SDS011;63678;47.994;7.854;2023-04-25T13:37:23;3.85;;;2.33;;
2452;SDS011;63678;47.994;7.854;2023-04-25T13:39:56;8.25;;;2.20;;
2452;SDS011;63678;47.994;7.854;2023-04-25T13:42:28;5.07;;;2.30;;
2452;SDS011;63678;47.994;7.854;2023-04-25T13:45:01;3.50;;;1.67;;
2452;SDS011;63678;47.994;7.854;2023-04-25T13:47:34;3.85;;;1.90;;
2452;SDS011;63678;47.994;7.854;2023-04-25T13:50:07;4.80;;;2.20;;
2452;SDS011;63678;47.994;7.854;2023-04-25T13:52:40;5.20;;;2.40;;
2452;SDS011;63678;47.994;7.854;2023-04-25T13:55:13;4.53;;;2.35;;
2452;SDS011;63678;47.994;7.854;2023-04-25T13:57:46;4.68;;;2.30;;
2452;SDS011;63678;47.994;7.854;2023-04-25T14:00:18;5.78;;;2.20;;
2452;SDS011;63678;47.994;7.854;2023-04-25T14:02:52;5.10;;;2.08;;
2452;SDS011;63678;47.994;7.854;2023-04-25T14:05:25;5.13;;;2.63;;
2452;SDS011;63678;47.994;7.854;2023-04-25T14:07:58;4.10;;;2.10;;
2452;SDS011;63678;47.994;7.854;2023-04-25T14:10:33;3.75;;;1.90;;
2452;SDS011;63678;47.994;7.854;2023-04-25T14:13:06;4.55;;;2.10;;
2452;SDS011;63678;47.994;7.854;2023-04-25T14:15:41;4.93;;;2.22;;
2452;SDS011;63678;47.994;7.854;2023-04-25T14:18:14;3.90;;;2.35;;
2452;SDS011;63678;47.994;7.854;2023-04-25T14:20:46;7.80;;;2.65;;
2452;SDS011;63678;47.994;7.854;2023-04-25T14:23:19;5.55;;;2.33;;
2452;SDS011;63678;47.994;7.854;2023-04-25T14:25:51;5.30;;;2.22;;
2452;SDS011;63678;47.994;7.854;2023-04-25T14:28:24;3.85;;;2.03;;
2452;SDS011;63678;47.994;7.854;2023-04-25T14:30:57;4.38;;;1.85;;
2452;SDS011;63678;47.994;7.854;2023-04-25T14:33:30;4.75;;;2.08;;
2452;SDS011;63678;47.994;7.854;2023-04-25T14:36:02;3.80;;;2.40;;
2452;SDS011;63678;47.994;7.854;2023-04-25T14:38:35;5.47;;;2.83;;
2452;SDS011;63678;47.994;7.854;2023-04-25T14:41:07;4.18;;;2.50;;
2452;SDS011;63678;47.994;7.854;2023-04-25T14:43:40;4.72;;;2.90;;
2452;SDS011;63678;47.994;7.854;2023-04-25T14:46:13;5.85;;;2.63;;
2452;SDS011;63678;47.994;7.854;2023-04-25T14:48:46;4.00;;;2.50;;
2452;SDS011;63678;47.994;7.854;2023-04-25T14:51:19;4.55;;;2.22;;
2452;SDS011;63678;47.994;7.854;2023-04-25T14:53:51;4.22;;;2.30;;
2452;SDS011;63678;47.994;7.854;2023-04-25T14:56:24;5.55;;;2.53;;
2452;SDS011;63678;47.994;7.854;2023-04-25T14:58:57;5.68;;;2.42;;
2452;SDS011;63678;47.994;7.854;2023-04-25T15:01:29;5.22;;;2.40;;
2452;SDS011;63678;47.994;7.854;2023-04-25T15:04:02;5.35;;;2.85;;
2452;SDS011;63678;47.994;7.854;2023-04-25T15:06:35;4.55;;;2.95;;
2452;SDS011;63678;47.994;7.854;2023-04-25T15:09:08;4.82;;;3.03;;
2452;SDS011;63678;47.994;7.854;2023-04-25T15:11:42;5.75;;;2.63;;
2452;SDS011;63678;47.994;7.854;2023-04-25T15:14:15;4.45;;;2.70;;
2452;SDS011;63678;47.994;7.854;2023-04-25T15:16:49;4.30;;;2.67;;
2452;SDS011;63678;47.994;7.854;2023-04-25T15:19:21;5.93;;;2.83;;
2452;SDS011;63678;47.994;7.854;2023-04-25T15:21:53;5.65;;;3.35;;
2452;SDS011;63678;47.994;7.854;2023-04-25T15:24:27;7.10;;;3.85;;
2452;SDS011;63678;47.994;7.854;2023-04-25T15:27:00;6.05;;;3.30;;
2452;SDS011;63678;47.994;7.854;2023-04-25T15:29:33;6.70;;;3.33;;
2452;SDS011;63678;47.994;7.854;2023-04-25T15:32:05;6.13;;;3.28;;
2452;SDS011;63678;47.994;7.854;2023-04-25T15:34:37;6.13;;;3.75;;
2452;SDS011;63678;47.994;7.854;2023-04-25T15:37:10;5.78;;;3.08;;
2452;SDS011;63678;47.994;7.854;2023-04-25T15:39:43;5.38;;;3.35;;
2452;SDS011;63678;47.994;7.854;2023-04-25T15:42:16;4.68;;;2.90;;
2452;SDS011;63678;47.994;7.854;2023-04-25T15:44:48;5.75;;;3.00;;
2452;SDS011;63678;47.994;7.854;2023-04-25T15:47:21;6.03;;;3.50;;
2452;SDS011;63678;47.994;7.854;2023-04-25T15:49:53;5.90;;;3.03;;
2452;SDS011;63678;47.994;7.854;2023-04-25T15:52:26;5.25;;;3.13;;
2452;SDS011;63678;47.994;7.854;2023-04-25T15:54:59;8.15;;;3.25;;